Time;durP1;ratioP1;P1;durP2;ratioP2;P2;SDS_P1;SDS_P2;PMS_P1;PMS_P2;Temp;Humidity;BMP_temperature;BMP_pressure;BME280_temperature;BME280_humidity;BME280_pressure;Samples;Min_cycle;Max_cycle;Signal;HPM_P1;HPM_P2
2023/04/06 00:01:20;;;;;;;9.77;5.43;;;19.70;90.90;;;;;;5069755;28;20543;-65
2023/04/06 00:03:48;;;;;;;10.17;4.30;;;19.70;90.40;;;;;;5069404;28;20180;-73
2023/04/06 00:06:15;;;;;;;12.20;4.80;;;19.70;90.70;;;;;;5069258;28;20210;-65
2023/04/06 00:08:44;;;;;;;12.00;4.87;;;19.70;90.40;;;;;;5073046;28;20223;-64
2023/04/06 00:11:11;;;;;;;9.90;5.13;;;19.70;90.50;;;;;;5073181;28;20253;-64
2023/04/06 00:13:39;;;;;;;12.10;4.70;;;19.70;90.60;;;;;;5072392;28;20179;-64
2023/04/06 00:16:06;;;;;;;7.17;4.60;;;19.70;90.60;;;;;;5072858;28;20203;-63
2023/04/06 00:18:34;;;;;;;8.33;4.40;;;19.70;90.10;;;;;;5071037;28;20314;-64
2023/04/06 00:21:01;;;;;;;9.33;5.47;;;19.60;89.90;;;;;;5072055;28;20294;-69
2023/04/06 00:23:28;;;;;;;11.27;5.10;;;19.60;90.20;;;;;;5071904;28;20189;-70
2023/04/06 00:25:56;;;;;;;8.40;4.50;;;19.80;90.40;;;;;;5073276;28;20194;-66
2023/04/06 00:28:26;;;;;;;9.30;4.20;;;19.80;89.80;;;;;;5071206;28;20210;-66
2023/04/06 00:30:55;;;;;;;14.87;5.60;;;19.80;89.30;;;;;;5067490;28;20179;-66
2023/04/06 00:33:23;;;;;;;8.50;4.03;;;19.80;89.30;;;;;;5070825;28;20582;-64
2023/04/06 00:35:51;;;;;;;10.67;4.33;;;19.90;89.10;;;;;;5069929;28;20267;-64
2023/04/06 00:38:18;;;;;;;10.70;3.83;;;19.90;89.10;;;;;;5069885;28;20653;-66
2023/04/06 00:40:46;;;;;;;7.37;3.73;;;19.90;87.90;;;;;;5067530;28;20291;-64
2023/04/06 00:43:14;;;;;;;17.40;4.37;;;20.00;88.30;;;;;;5072610;28;20286;-65
2023/04/06 00:45:42;;;;;;;18.13;4.80;;;20.20;88.50;;;;;;5069632;28;20186;-68
2023/04/06 00:48:09;;;;;;;7.00;3.30;;;20.30;87.90;;;;;;5072205;28;20191;-66
2023/04/06 00:50:37;;;;;;;11.33;3.23;;;20.30;87.00;;;;;;5070505;28;20274;-68
2023/04/06 00:53:04;;;;;;;6.93;2.80;;;20.40;86.90;;;;;;5072477;28;20546;-66
2023/04/06 00:55:32;;;;;;;4.30;2.30;;;20.50;86.00;;;;;;5071324;28;20198;-68
2023/04/06 00:58:00;;;;;;;3.13;1.77;;;20.70;85.80;;;;;;5069779;28;20223;-64
2023/04/06 01:00:28;;;;;;;3.60;1.90;;;20.80;84.60;;;;;;5070579;28;20634;-64
2023/04/06 01:02:55;;;;;;;3.80;1.90;;;20.90;83.70;;;;;;5068548;28;20245;-64
2023/04/06 01:05:23;;;;;;;8.37;1.87;;;21.00;83.10;;;;;;5067400;28;20190;-66
2023/04/06 01:07:50;;;;;;;3.30;1.53;;;21.10;82.60;;;;;;5070021;28;20223;-69
2023/04/06 01:10:28;;;;;;;5.07;1.53;;;21.20;81.30;;;;;;5071258;28;20614;-64
2023/04/06 01:12:56;;;;;;;6.47;2.20;;;21.30;81.60;;;;;;5071286;28;20194;-69
2023/04/06 01:15:26;;;;;;;9.13;1.80;;;21.40;81.70;;;;;;5074537;28;20225;-66
2023/04/06 01:17:53;;;;;;;8.57;1.87;;;21.30;80.20;;;;;;5074546;28;20216;-64
2023/04/06 01:20:21;;;;;;;4.37;1.50;;;21.30;80.80;;;;;;5066349;28;20172;-71
2023/04/06 01:22:48;;;;;;;4.23;1.40;;;21.30;79.80;;;;;;5072306;28;20264;-64
2023/04/06 01:25:15;;;;;;;2.70;1.40;;;21.30;79.40;;;;;;5072253;28;20711;-65
2023/04/06 01:27:43;;;;;;;5.67;1.53;;;21.40;78.90;;;;;;5070674;28;20179;-66
2023/04/06 01:30:11;;;;;;;7.13;1.50;;;21.50;78.80;;;;;;5069447;28;20264;-68
2023/04/06 01:32:38;;;;;;;8.37;1.80;;;21.60;77.70;;;;;;5070281;28;20190;-67
2023/04/06 01:35:06;;;;;;;4.97;1.50;;;21.60;78.10;;;;;;5067317;28;20219;-66
2023/04/06 01:37:33;;;;;;;6.10;1.47;;;21.60;77.80;;;;;;5068029;28;20282;-67
2023/04/06 01:40:01;;;;;;;2.90;1.10;;;21.60;78.00;;;;;;5068649;28;20290;-68
2023/04/06 01:42:30;;;;;;;3.40;1.30;;;21.50;77.80;;;;;;5067926;28;20183;-65
2023/04/06 01:44:57;;;;;;;6.07;1.27;;;21.80;78.20;;;;;;5074698;28;20271;-65
2023/04/06 01:47:25;;;;;;;5.33;1.30;;;21.80;76.40;;;;;;5075028;28;20252;-66
2023/04/06 01:49:52;;;;;;;3.60;1.43;;;22.00;78.10;;;;;;5070920;28;20638;-64
2023/04/06 01:52:20;;;;;;;2.43;1.30;;;22.20;78.40;;;;;;5071680;28;20179;-64
2023/04/06 01:54:48;;;;;;;2.10;0.90;;;22.10;77.60;;;;;;5067569;28;20717;-68
2023/04/06 01:57:15;;;;;;;4.17;1.40;;;22.30;77.00;;;;;;5066217;28;20221;-66
2023/04/06 01:59:42;;;;;;;3.47;1.10;;;22.60;75.10;;;;;;5064231;28;20202;-65
2023/04/06 02:02:10;;;;;;;4.30;1.30;;;22.50;72.70;;;;;;5065790;28;20226;-66
2023/04/06 02:04:37;;;;;;;4.93;1.20;;;22.30;73.40;;;;;;5069792;28;20851;-68
2023/04/06 02:07:04;;;;;;;3.10;1.40;;;22.80;73.50;;;;;;5069896;28;20512;-64
2023/04/06 02:09:32;;;;;;;5.60;1.60;;;23.10;70.80;;;;;;5069429;28;20730;-71
2023/04/06 02:12:01;;;;;;;4.97;1.33;;;23.20;68.90;;;;;;5068991;28;20714;-64
2023/04/06 02:14:28;;;;;;;4.10;1.23;;;23.30;70.00;;;;;;5076842;28;20175;-65
2023/04/06 02:16:55;;;;;;;6.33;1.17;;;23.50;69.60;;;;;;5070289;28;20266;-65
2023/04/06 02:19:23;;;;;;;4.47;1.23;;;23.60;69.70;;;;;;5068672;28;20891;-65
2023/04/06 02:21:50;;;;;;;3.10;1.20;;;23.60;68.70;;;;;;5063259;28;20184;-64
2023/04/06 02:24:18;;;;;;;4.03;1.00;;;23.80;67.80;;;;;;5062666;28;20190;-67
2023/04/06 02:26:45;;;;;;;4.57;1.10;;;24.20;65.70;;;;;;5073054;28;20178;-67
2023/04/06 02:29:12;;;;;;;3.27;1.10;;;24.30;66.20;;;;;;5065706;28;20184;-67
2023/04/06 02:31:40;;;;;;;3.97;1.03;;;24.20;66.40;;;;;;5069798;28;20191;-64
2023/04/06 02:34:10;;;;;;;2.37;1.20;;;23.70;67.30;;;;;;5071045;28;20183;-64
2023/04/06 02:36:38;;;;;;;3.23;0.97;;;23.70;67.90;;;;;;5069052;28;20209;-67
2023/04/06 02:39:05;;;;;;;4.13;1.33;;;23.60;66.80;;;;;;5067198;28;20218;-66
2023/04/06 02:41:32;;;;;;;2.77;0.93;;;23.80;68.10;;;;;;5066108;28;20187;-65
2023/04/06 02:44:00;;;;;;;6.57;1.50;;;23.70;69.20;;;;;;5067948;28;20196;-67
2023/04/06 02:46:27;;;;;;;4.00;1.30;;;23.70;70.30;;;;;;5067810;28;20642;-65
2023/04/06 02:48:54;;;;;;;5.67;1.50;;;23.60;70.40;;;;;;5073775;28;20217;-64
2023/04/06 02:51:22;;;;;;;3.50;1.50;;;23.30;71.70;;;;;;5073500;28;20271;-66
2023/04/06 02:53:49;;;;;;;5.47;1.57;;;23.40;72.30;;;;;;5067970;28;20282;-65
2023/04/06 02:56:16;;;;;;;4.43;1.40;;;23.50;72.40;;;;;;5070423;28;20175;-64
2023/04/06 02:58:44;;;;;;;13.47;2.20;;;23.50;71.00;;;;;;5064346;28;20218;-65
2023/04/06 03:01:11;;;;;;;3.63;1.50;;;23.30;70.80;;;;;;5071157;28;20232;-66
2023/04/06 03:03:39;;;;;;;6.80;1.40;;;23.30;72.00;;;;;;5070588;28;20241;-66
2023/04/06 03:06:06;;;;;;;7.13;1.57;;;23.10;71.20;;;;;;5072874;28;20180;-65
2023/04/06 03:08:34;;;;;;;15.07;2.73;;;23.10;70.40;;;;;;5068808;28;20241;-66
2023/04/06 03:11:01;;;;;;;3.70;1.10;;;23.20;69.80;;;;;;5075486;28;20194;-65
2023/04/06 03:13:28;;;;;;;3.53;1.23;;;23.10;68.90;;;;;;5066646;28;20251;-66
2023/04/06 03:15:56;;;;;;;3.73;1.63;;;23.20;69.50;;;;;;5072137;28;20183;-65
2023/04/06 03:18:25;;;;;;;4.10;1.40;;;23.20;69.80;;;;;;5070271;28;20307;-64
2023/04/06 03:20:55;;;;;;;5.73;1.40;;;23.30;70.00;;;;;;5073612;28;20586;-65
2023/04/06 03:23:22;;;;;;;5.33;1.40;;;23.40;69.20;;;;;;5073396;28;20187;-65
2023/04/06 03:25:50;;;;;;;4.80;1.30;;;23.60;67.20;;;;;;5074165;28;20184;-65
2023/04/06 03:28:17;;;;;;;7.63;1.20;;;23.50;67.80;;;;;;5072530;28;20171;-70
2023/04/06 03:30:45;;;;;;;3.13;1.20;;;23.40;67.70;;;;;;5072583;28;20646;-65
2023/04/06 03:33:12;;;;;;;4.10;1.23;;;23.40;68.30;;;;;;5074187;28;20175;-66
2023/04/06 03:35:40;;;;;;;2.90;1.30;;;23.50;67.20;;;;;;5072705;28;20171;-65
2023/04/06 03:38:07;;;;;;;6.27;1.20;;;23.50;67.40;;;;;;5069871;28;20268;-63
2023/04/06 03:40:35;;;;;;;3.17;1.20;;;23.50;67.20;;;;;;5073128;28;20188;-64
2023/04/06 03:43:02;;;;;;;2.97;1.30;;;23.60;67.40;;;;;;5068653;28;20187;-63
2023/04/06 03:45:30;;;;;;;5.90;1.60;;;23.80;66.20;;;;;;5069584;28;20194;-64
2023/04/06 03:47:57;;;;;;;5.43;1.47;;;23.80;66.80;;;;;;5071336;28;20191;-65
2023/04/06 03:50:25;;;;;;;4.50;1.40;;;23.70;66.50;;;;;;5072315;28;20571;-67
2023/04/06 03:52:52;;;;;;;2.53;1.00;;;23.80;67.70;;;;;;5064842;28;20242;-64
2023/04/06 03:55:19;;;;;;;5.47;1.33;;;23.60;66.30;;;;;;5071967;28;20191;-68
2023/04/06 03:57:47;;;;;;;21.00;2.60;;;23.50;66.60;;;;;;5072639;28;20219;-66
2023/04/06 04:00:17;;;;;;;6.77;1.60;;;23.50;67.40;;;;;;5066290;28;20582;-68
2023/04/06 04:02:44;;;;;;;2.17;1.03;;;23.60;67.40;;;;;;5073422;28;20244;-64
2023/04/06 04:05:12;;;;;;;4.50;1.37;;;23.60;67.50;;;;;;5069658;28;20183;-64
2023/04/06 04:07:39;;;;;;;8.53;1.40;;;23.40;68.20;;;;;;5069018;28;20183;-66
2023/04/06 04:10:07;;;;;;;8.73;1.60;;;23.30;66.70;;;;;;5062899;28;20289;-66
2023/04/06 04:12:35;;;;;;;3.73;1.10;;;23.20;67.50;;;;;;5073108;28;20260;-65
2023/04/06 04:15:02;;;;;;;4.73;1.27;;;23.20;67.10;;;;;;5073366;28;20187;-67
2023/04/06 04:17:30;;;;;;;3.97;1.00;;;23.20;66.70;;;;;;5069081;28;20222;-65
2023/04/06 04:19:57;;;;;;;5.83;1.70;;;23.20;67.40;;;;;;5072432;28;20198;-68
2023/04/06 04:22:25;;;;;;;7.03;1.50;;;23.30;66.60;;;;;;5078116;28;20637;-67
2023/04/06 04:24:52;;;;;;;12.77;1.67;;;23.40;66.30;;;;;;5085711;28;20172;-67
2023/04/06 04:27:20;;;;;;;8.03;1.53;;;23.30;66.50;;;;;;5072830;28;20333;-65
2023/04/06 04:29:47;;;;;;;4.57;1.10;;;23.30;66.80;;;;;;5070297;28;20635;-65
2023/04/06 04:32:15;;;;;;;3.00;1.00;;;23.30;66.80;;;;;;5073777;28;20262;-66
2023/04/06 04:34:47;;;;;;;6.70;1.13;;;23.20;67.70;;;;;;5073743;28;20224;-68
2023/04/06 04:37:14;;;;;;;3.83;1.20;;;23.10;67.70;;;;;;5068007;28;20989;-68
2023/04/06 04:39:41;;;;;;;2.10;1.10;;;23.30;67.50;;;;;;5073807;28;20195;-65
2023/04/06 04:42:09;;;;;;;5.37;1.13;;;23.40;66.70;;;;;;5073624;28;20160;-66
2023/04/06 04:44:36;;;;;;;3.20;1.00;;;23.80;65.00;;;;;;5073703;28;20645;-65
2023/04/06 04:47:04;;;;;;;3.40;1.00;;;24.30;63.70;;;;;;5073643;28;20175;-67
2023/04/06 04:49:31;;;;;;;3.83;1.40;;;24.30;64.20;;;;;;5072957;28;20183;-65
2023/04/06 04:51:59;;;;;;;6.20;1.10;;;24.30;63.40;;;;;;5073462;28;20232;-65
2023/04/06 04:54:26;;;;;;;6.20;1.20;;;24.60;62.60;;;;;;5063776;28;20591;-64
2023/04/06 04:56:53;;;;;;;4.10;1.30;;;24.70;62.30;;;;;;5072779;28;20175;-66
2023/04/06 04:59:21;;;;;;;3.83;1.10;;;24.70;62.10;;;;;;5072824;28;20190;-64
2023/04/06 05:01:48;;;;;;;5.80;1.10;;;24.40;63.70;;;;;;5072372;28;20179;-64
2023/04/06 05:04:15;;;;;;;4.17;1.23;;;24.40;63.20;;;;;;5072528;28;20186;-66
2023/04/06 05:06:43;;;;;;;3.80;1.30;;;24.40;64.20;;;;;;5072530;28;20281;-67
2023/04/06 05:09:10;;;;;;;4.40;1.53;;;24.20;64.40;;;;;;5072796;28;20302;-66
2023/04/06 05:11:38;;;;;;;7.23;1.00;;;23.80;64.80;;;;;;5072063;28;20625;-67
2023/04/06 05:14:06;;;;;;;5.20;0.83;;;23.70;64.90;;;;;;5068656;28;20687;-66
2023/04/06 05:16:36;;;;;;;6.53;1.67;;;23.50;64.50;;;;;;5072728;28;20183;-66
2023/04/06 05:19:03;;;;;;;9.43;1.50;;;23.50;65.40;;;;;;5072325;28;20239;-65
2023/04/06 05:21:31;;;;;;;5.50;1.20;;;23.60;65.20;;;;;;5072972;28;20633;-66
2023/04/06 05:23:59;;;;;;;7.43;1.53;;;23.60;65.10;;;;;;5072973;28;20212;-65
2023/04/06 05:26:26;;;;;;;8.93;1.50;;;23.60;65.60;;;;;;5053166;28;20202;-66
2023/04/06 05:28:54;;;;;;;8.90;1.30;;;23.50;65.00;;;;;;5068072;28;20183;-66
2023/04/06 05:31:22;;;;;;;5.33;1.17;;;23.50;64.80;;;;;;5070876;28;20176;-66
2023/04/06 05:33:49;;;;;;;3.73;1.10;;;23.50;65.20;;;;;;5072409;28;20575;-71
2023/04/06 05:36:16;;;;;;;4.13;1.40;;;23.40;65.20;;;;;;5069344;28;20211;-70
2023/04/06 05:38:44;;;;;;;3.23;1.00;;;23.30;65.30;;;;;;5068765;28;21113;-65
2023/04/06 05:41:11;;;;;;;1.97;0.87;;;23.30;66.00;;;;;;5072638;28;20183;-66
2023/04/06 05:43:38;;;;;;;3.00;0.90;;;23.30;66.10;;;;;;5072227;28;20179;-65
2023/04/06 05:46:06;;;;;;;3.37;1.10;;;23.20;65.40;;;;;;5072568;28;20262;-65
2023/04/06 05:48:34;;;;;;;3.17;1.07;;;23.10;65.30;;;;;;5052542;28;20573;-64
2023/04/06 05:51:05;;;;;;;4.30;1.20;;;23.00;65.80;;;;;;5059309;28;20175;-67
2023/04/06 05:53:33;;;;;;;3.70;0.90;;;22.90;64.70;;;;;;5070516;28;20191;-66
2023/04/06 05:56:04;;;;;;;4.73;0.90;;;22.80;65.10;;;;;;5069608;28;20195;-70
2023/04/06 05:58:32;;;;;;;2.20;0.77;;;22.80;65.30;;;;;;5072788;28;20222;-68
2023/04/06 06:01:00;;;;;;;4.67;1.37;;;22.70;65.60;;;;;;5072381;28;20522;-66
2023/04/06 06:03:28;;;;;;;3.63;1.30;;;22.70;65.90;;;;;;5072379;28;20588;-65
2023/04/06 06:06:04;;;;;;;4.47;1.13;;;22.70;65.30;;;;;;5072617;28;20183;-66
2023/04/06 06:08:31;;;;;;;2.93;1.20;;;22.70;65.70;;;;;;5072414;28;20250;-65
2023/04/06 06:10:59;;;;;;;6.30;1.10;;;22.80;66.50;;;;;;5072513;28;20182;-65
2023/04/06 06:13:26;;;;;;;4.83;1.13;;;22.70;67.40;;;;;;5072304;28;20266;-68
2023/04/06 06:15:53;;;;;;;3.47;0.90;;;22.60;68.20;;;;;;5072604;28;20237;-66
2023/04/06 06:18:21;;;;;;;4.57;1.20;;;22.50;67.90;;;;;;5072266;28;20579;-64
2023/04/06 06:20:48;;;;;;;2.73;0.90;;;22.50;68.30;;;;;;5070179;28;20207;-66
2023/04/06 06:23:16;;;;;;;2.57;1.03;;;22.30;67.70;;;;;;5068834;28;20179;-66
2023/04/06 06:25:43;;;;;;;1.90;0.90;;;22.30;68.20;;;;;;5072282;28;20715;-70
2023/04/06 06:28:10;;;;;;;4.43;1.40;;;22.30;68.70;;;;;;5072013;28;20232;-64
2023/04/06 06:30:37;;;;;;;5.13;1.40;;;22.30;69.30;;;;;;5072025;28;20540;-65
2023/04/06 06:33:05;;;;;;;5.30;1.80;;;22.30;69.70;;;;;;5074011;28;20258;-64
2023/04/06 06:35:32;;;;;;;5.63;1.40;;;22.30;70.20;;;;;;5075884;28;20217;-65
2023/04/06 06:37:59;;;;;;;4.60;1.20;;;22.20;70.80;;;;;;5071216;28;20204;-65
2023/04/06 06:40:27;;;;;;;5.23;1.50;;;22.10;71.20;;;;;;5076102;28;20183;-66
2023/04/06 06:42:54;;;;;;;4.33;1.50;;;22.00;71.50;;;;;;5075821;28;20536;-65
2023/04/06 06:45:21;;;;;;;7.40;1.43;;;21.90;71.70;;;;;;5075945;28;20175;-67
2023/04/06 06:47:49;;;;;;;4.77;1.30;;;21.90;72.10;;;;;;5055686;28;20206;-66
2023/04/06 06:50:16;;;;;;;5.57;1.37;;;21.80;72.30;;;;;;5074895;28;20256;-69
2023/04/06 06:52:44;;;;;;;5.63;1.67;;;21.80;72.50;;;;;;5075849;28;20182;-66
2023/04/06 06:55:11;;;;;;;4.50;1.37;;;21.80;72.70;;;;;;5070688;28;20252;-66
2023/04/06 06:57:39;;;;;;;2.00;1.03;;;21.80;73.00;;;;;;5075507;28;20691;-68
2023/04/06 07:00:07;;;;;;;5.57;1.30;;;21.70;73.20;;;;;;5075697;28;20183;-66
2023/04/06 07:02:35;;;;;;;5.83;1.43;;;21.70;73.30;;;;;;5075286;28;20175;-68
2023/04/06 07:05:03;;;;;;;6.90;1.53;;;21.60;73.60;;;;;;5075573;28;20171;-65
2023/04/06 07:07:33;;;;;;;5.60;1.60;;;21.50;74.00;;;;;;5074071;28;20171;-66
2023/04/06 07:10:01;;;;;;;3.90;1.40;;;21.50;74.30;;;;;;5075613;28;20629;-68
2023/04/06 07:12:28;;;;;;;10.47;1.57;;;21.50;74.50;;;;;;5075479;28;20583;-68
2023/04/06 07:14:56;;;;;;;4.67;1.67;;;21.40;74.60;;;;;;5074833;28;20548;-68
2023/04/06 07:17:23;;;;;;;4.77;1.57;;;21.40;74.70;;;;;;5069749;28;20230;-66
2023/04/06 07:19:51;;;;;;;7.67;2.17;;;21.30;74.90;;;;;;5072737;28;20187;-65
2023/04/06 07:22:18;;;;;;;8.77;1.60;;;21.30;75.20;;;;;;5069150;28;20228;-66
2023/04/06 07:24:45;;;;;;;3.60;1.40;;;21.30;75.40;;;;;;5074649;28;20182;-65
2023/04/06 07:27:13;;;;;;;4.10;1.60;;;21.30;75.80;;;;;;5075199;28;20179;-65
2023/04/06 07:29:40;;;;;;;8.87;1.50;;;21.20;75.80;;;;;;5074871;28;20183;-66
2023/04/06 07:32:07;;;;;;;5.27;1.27;;;21.20;76.10;;;;;;5074945;28;20193;-65
2023/04/06 07:34:35;;;;;;;6.73;1.47;;;21.20;76.30;;;;;;5074935;28;20172;-65
2023/04/06 07:37:02;;;;;;;6.17;1.63;;;21.20;76.40;;;;;;5064796;28;20204;-65
2023/04/06 07:39:30;;;;;;;6.57;1.53;;;21.10;76.40;;;;;;5073174;28;20232;-70
2023/04/06 07:41:57;;;;;;;5.10;1.40;;;21.10;76.60;;;;;;5056408;28;20330;-65
2023/04/06 07:44:25;;;;;;;6.97;1.67;;;21.00;76.80;;;;;;5063409;28;20205;-66
2023/04/06 07:46:52;;;;;;;3.67;1.33;;;21.00;77.10;;;;;;5074147;28;20183;-67
2023/04/06 07:49:20;;;;;;;7.60;1.50;;;20.90;77.20;;;;;;5058858;28;20191;-65
2023/04/06 07:51:48;;;;;;;5.57;1.80;;;20.80;77.60;;;;;;5067864;28;20276;-69
2023/04/06 07:54:15;;;;;;;7.63;1.77;;;20.80;77.90;;;;;;5075126;28;20202;-66
2023/04/06 07:56:42;;;;;;;7.07;1.53;;;20.80;78.10;;;;;;5075001;28;20176;-67
2023/04/06 07:59:11;;;;;;;6.93;2.00;;;20.70;78.30;;;;;;5074487;28;20226;-66
2023/04/06 08:01:38;;;;;;;7.50;1.70;;;20.70;78.60;;;;;;5073139;28;20186;-68
2023/04/06 08:04:05;;;;;;;6.93;2.10;;;20.60;79.10;;;;;;5073922;28;20194;-67
2023/04/06 08:06:34;;;;;;;6.03;2.20;;;20.50;79.30;;;;;;5072741;28;20171;-68
2023/04/06 08:09:01;;;;;;;8.13;1.70;;;20.50;79.50;;;;;;5071610;28;20231;-69
2023/04/06 08:11:28;;;;;;;6.37;1.80;;;20.50;80.00;;;;;;5073406;28;20598;-67
2023/04/06 08:13:57;;;;;;;9.27;2.30;;;20.40;80.10;;;;;;5073713;28;20206;-67
2023/04/06 08:16:25;;;;;;;7.90;2.00;;;20.40;80.40;;;;;;5072968;28;20208;-67
2023/04/06 08:18:52;;;;;;;7.07;2.43;;;20.30;80.60;;;;;;5074231;28;20210;-65
2023/04/06 08:21:19;;;;;;;7.20;2.43;;;20.30;80.60;;;;;;5075056;28;20172;-66
2023/04/06 08:23:47;;;;;;;7.63;2.70;;;20.30;81.00;;;;;;5064997;28;20255;-65
2023/04/06 08:26:14;;;;;;;6.17;3.53;;;20.30;81.00;;;;;;5063702;28;20225;-65
2023/04/06 08:28:42;;;;;;;7.80;3.10;;;20.20;81.20;;;;;;5069589;28;20183;-64
2023/04/06 08:31:09;;;;;;;7.73;2.80;;;20.00;81.30;;;;;;5072898;28;20199;-64
2023/04/06 08:33:38;;;;;;;4.17;1.97;;;20.00;81.40;;;;;;5072456;28;20228;-65
2023/04/06 08:36:14;;;;;;;6.53;2.60;;;19.90;81.90;;;;;;5073905;28;20179;-66
2023/04/06 08:38:42;;;;;;;5.77;2.30;;;19.80;82.10;;;;;;5074089;28;20214;-64
2023/04/06 08:41:12;;;;;;;7.27;2.43;;;19.80;82.40;;;;;;5073545;28;20198;-64
2023/04/06 08:43:50;;;;;;;6.50;2.13;;;19.80;82.70;;;;;;5073374;28;20176;-66
2023/04/06 08:46:18;;;;;;;5.23;2.10;;;19.70;82.60;;;;;;5073451;28;20194;-67
2023/04/06 08:48:49;;;;;;;6.63;2.70;;;19.70;82.70;;;;;;5073456;28;20783;-65
2023/04/06 08:51:17;;;;;;;9.27;2.40;;;19.60;83.00;;;;;;5073771;28;20668;-66
2023/04/06 08:53:45;;;;;;;7.90;2.67;;;19.60;83.10;;;;;;5072510;28;20175;-66
2023/04/06 08:56:13;;;;;;;14.53;3.07;;;19.50;83.50;;;;;;5069302;28;20529;-65
2023/04/06 08:58:42;;;;;;;11.13;2.67;;;19.50;83.60;;;;;;5073313;28;20674;-64
2023/04/06 09:01:15;;;;;;;14.40;3.10;;;19.40;83.80;;;;;;5073361;28;20659;-65
2023/04/06 09:03:44;;;;;;;7.17;2.47;;;19.40;84.10;;;;;;5072968;28;20179;-64
2023/04/06 09:06:13;;;;;;;6.93;2.60;;;19.40;84.00;;;;;;5089277;28;20532;-68
2023/04/06 09:08:41;;;;;;;9.63;2.40;;;19.30;83.90;;;;;;5072969;28;20685;-67
2023/04/06 09:11:10;;;;;;;6.90;2.50;;;19.30;84.30;;;;;;5073175;28;20179;-65
2023/04/06 09:13:50;;;;;;;7.77;2.50;;;19.20;84.20;;;;;;5072934;28;20231;-65
2023/04/06 09:16:18;;;;;;;7.47;2.40;;;19.20;84.30;;;;;;5072959;28;20171;-65
2023/04/06 09:18:47;;;;;;;12.63;2.60;;;19.10;84.40;;;;;;5073003;28;20633;-63
2023/04/06 09:21:17;;;;;;;7.07;2.30;;;19.10;84.60;;;;;;5072890;28;20183;-64
2023/04/06 09:23:44;;;;;;;8.20;2.50;;;19.00;84.40;;;;;;5072588;28;20183;-66
2023/04/06 09:26:13;;;;;;;6.13;1.90;;;19.00;84.60;;;;;;5072965;28;20183;-69
2023/04/06 09:28:45;;;;;;;4.27;2.30;;;18.90;84.70;;;;;;5072769;28;20186;-65
2023/04/06 09:31:16;;;;;;;12.20;2.97;;;18.90;84.70;;;;;;5072532;28;20182;-65
2023/04/06 09:33:46;;;;;;;7.97;2.63;;;18.80;84.70;;;;;;5072438;28;20179;-64
2023/04/06 09:36:15;;;;;;;6.73;2.43;;;18.80;85.00;;;;;;5072620;28;20171;-64
2023/04/06 09:39:04;;;;;;;7.70;2.80;;;18.80;85.00;;;;;;5072560;28;20301;-65
2023/04/06 09:41:33;;;;;;;5.53;2.60;;;18.80;85.30;;;;;;5072143;28;20539;-64
2023/04/06 09:44:08;;;;;;;7.60;2.30;;;18.80;85.30;;;;;;5072658;28;20183;-66
2023/04/06 09:46:40;;;;;;;8.80;2.63;;;18.80;85.30;;;;;;5070427;28;20175;-64
2023/04/06 09:49:09;;;;;;;5.83;2.13;;;18.80;85.80;;;;;;5072940;28;20167;-65
2023/04/06 09:51:57;;;;;;;11.60;3.07;;;18.80;85.80;;;;;;5068148;28;20630;-67
2023/04/06 09:54:27;;;;;;;9.17;2.30;;;18.80;85.60;;;;;;5052793;28;20176;-64
2023/04/06 09:57:18;;;;;;;10.20;3.00;;;18.80;85.30;;;;;;5052633;28;20474;-65
2023/04/06 09:59:48;;;;;;;5.50;2.90;;;18.70;85.30;;;;;;5063936;28;20270;-71
2023/04/06 10:02:46;;;;;;;7.03;3.17;;;18.60;85.50;;;;;;5072650;28;20701;-63
2023/04/06 10:05:32;;;;;;;7.33;3.27;;;18.50;85.70;;;;;;5072145;28;20229;-69
2023/04/06 10:08:03;;;;;;;14.00;3.43;;;18.50;85.90;;;;;;5072608;28;20199;-66
2023/04/06 10:10:31;;;;;;;8.10;3.10;;;18.50;86.00;;;;;;5072602;28;20248;-64
2023/04/06 10:13:00;;;;;;;8.60;3.20;;;18.40;86.00;;;;;;5072448;28;20305;-73
2023/04/06 10:15:29;;;;;;;5.53;3.10;;;18.40;85.90;;;;;;5072238;28;20187;-66
2023/04/06 10:18:01;;;;;;;6.60;3.10;;;18.40;86.10;;;;;;5072193;28;20252;-65
2023/04/06 10:20:46;;;;;;;9.90;2.93;;;18.30;85.90;;;;;;5072771;28;20189;-73
2023/04/06 10:23:27;;;;;;;7.50;3.03;;;18.30;86.10;;;;;;5069663;28;20199;-69
2023/04/06 10:25:59;;;;;;;10.80;3.57;;;18.30;86.10;;;;;;5052415;28;20222;-64
2023/04/06 10:28:36;;;;;;;11.23;3.37;;;18.30;86.00;;;;;;5065774;28;20175;-66
2023/04/06 10:31:07;;;;;;;9.33;3.83;;;18.30;86.20;;;;;;5073321;28;20179;-66
2023/04/06 10:33:35;;;;;;;9.23;3.50;;;18.30;86.20;;;;;;5073086;28;20557;-64
2023/04/06 10:36:34;;;;;;;9.50;3.20;;;18.30;86.50;;;;;;5072150;28;20187;-64
2023/04/06 10:39:05;;;;;;;9.63;3.50;;;18.30;86.60;;;;;;5049678;28;20639;-64
2023/04/06 10:41:42;;;;;;;8.83;3.40;;;18.20;86.70;;;;;;5072155;28;20187;-64
2023/04/06 10:44:24;;;;;;;11.47;3.90;;;18.30;86.70;;;;;;5072293;28;20177;-65
2023/04/06 10:47:01;;;;;;;10.47;3.30;;;18.20;86.90;;;;;;5072034;28;20218;-65
2023/04/06 10:49:29;;;;;;;10.67;3.13;;;18.20;86.90;;;;;;5071967;28;20175;-64
2023/04/06 10:51:59;;;;;;;9.83;3.50;;;18.10;87.20;;;;;;5071793;28;20179;-68
2023/04/06 10:54:28;;;;;;;11.50;2.97;;;18.10;87.30;;;;;;5072167;28;20187;-64
2023/04/06 10:56:56;;;;;;;11.60;3.40;;;18.10;87.50;;;;;;5065944;28;20618;-66
2023/04/06 10:59:25;;;;;;;12.07;3.30;;;18.00;87.50;;;;;;5051991;28;20212;-67
2023/04/06 11:01:53;;;;;;;6.97;2.90;;;18.00;87.70;;;;;;5062312;28;20179;-65
2023/04/06 11:04:23;;;;;;;6.87;3.17;;;18.00;87.60;;;;;;5072074;28;20665;-67
2023/04/06 11:06:51;;;;;;;11.87;3.23;;;18.00;87.90;;;;;;5071912;28;20532;-67
2023/04/06 11:09:29;;;;;;;14.07;3.77;;;17.90;87.90;;;;;;5071732;28;20219;-65
2023/04/06 11:11:57;;;;;;;11.27;3.20;;;17.90;87.90;;;;;;5071600;28;20178;-65
2023/04/06 11:14:26;;;;;;;10.37;3.37;;;17.90;88.10;;;;;;5071827;28;20195;-68
2023/04/06 11:16:53;;;;;;;11.00;2.93;;;17.80;88.20;;;;;;5071515;28;20207;-66
2023/04/06 11:19:21;;;;;;;9.17;3.43;;;17.90;88.30;;;;;;5075028;28;20676;-64
2023/04/06 11:21:49;;;;;;;11.47;3.30;;;17.80;88.40;;;;;;5075335;28;20237;-65
2023/04/06 11:24:21;;;;;;;10.50;3.47;;;17.80;88.50;;;;;;5073966;28;20211;-65
2023/04/06 11:26:52;;;;;;;13.50;3.80;;;17.80;88.60;;;;;;5065706;28;20186;-64
2023/04/06 11:29:21;;;;;;;9.17;3.50;;;17.80;88.60;;;;;;5056679;28;20233;-64
2023/04/06 11:31:49;;;;;;;5.93;3.07;;;17.80;88.50;;;;;;5074976;28;20193;-65
2023/04/06 11:34:24;;;;;;;11.80;3.30;;;17.80;88.60;;;;;;5074927;28;20197;-64
2023/04/06 11:37:05;;;;;;;13.90;3.47;;;17.70;88.70;;;;;;5075108;28;20596;-65
2023/04/06 11:39:37;;;;;;;9.77;3.03;;;17.70;89.00;;;;;;5074748;28;20213;-63
2023/04/06 11:42:05;;;;;;;10.67;4.03;;;17.80;89.00;;;;;;5075085;28;20902;-65
2023/04/06 11:44:39;;;;;;;9.27;3.43;;;17.60;88.80;;;;;;5075148;28;20175;-64
2023/04/06 11:47:11;;;;;;;9.43;3.40;;;17.60;88.80;;;;;;5073093;28;20630;-65
2023/04/06 11:49:40;;;;;;;9.13;3.07;;;17.60;89.00;;;;;;5074651;28;20218;-66
2023/04/06 11:52:24;;;;;;;10.70;3.40;;;17.50;89.10;;;;;;5074683;28;20630;-68
2023/04/06 11:54:53;;;;;;;10.60;4.00;;;17.50;89.30;;;;;;5074874;28;20590;-65
2023/04/06 11:57:25;;;;;;;10.97;3.13;;;17.50;89.40;;;;;;5074512;28;20187;-70
2023/04/06 11:59:53;;;;;;;8.63;3.57;;;17.50;89.40;;;;;;5074528;28;20183;-66
2023/04/06 12:02:20;;;;;;;8.73;3.27;;;17.50;89.50;;;;;;5071703;28;20218;-70
2023/04/06 12:04:48;;;;;;;9.13;3.30;;;17.50;89.50;;;;;;5070649;28;20179;-66
2023/04/06 12:07:15;;;;;;;9.10;3.03;;;17.50;89.70;;;;;;5073113;28;20183;-67
2023/04/06 12:09:44;;;;;;;12.40;3.53;;;17.50;89.70;;;;;;5070537;28;20227;-65
2023/04/06 12:12:15;;;;;;;7.90;3.43;;;17.50;89.70;;;;;;5072425;28;20203;-67
2023/04/06 12:14:42;;;;;;;17.70;3.83;;;17.50;90.00;;;;;;5074124;28;20186;-65
2023/04/06 12:17:10;;;;;;;8.97;3.93;;;17.50;89.80;;;;;;5068961;28;20279;-68
2023/04/06 12:19:37;;;;;;;11.20;3.40;;;17.50;89.90;;;;;;5066664;28;20191;-69
2023/04/06 12:22:05;;;;;;;10.23;3.90;;;17.50;90.00;;;;;;5072654;28;20201;-67
2023/04/06 12:24:32;;;;;;;9.20;3.60;;;17.50;89.90;;;;;;5067169;28;20183;-64
2023/04/06 12:27:01;;;;;;;10.83;4.20;;;17.40;90.10;;;;;;5059677;28;20685;-65
2023/04/06 12:29:28;;;;;;;10.37;3.90;;;17.40;90.10;;;;;;5073377;28;20175;-67
2023/04/06 12:31:56;;;;;;;16.37;3.90;;;17.30;90.10;;;;;;5069413;28;20202;-72
2023/04/06 12:34:23;;;;;;;10.57;4.03;;;17.30;90.20;;;;;;5059906;28;20184;-73
2023/04/06 12:36:50;;;;;;;11.80;4.00;;;17.20;90.20;;;;;;5072998;28;20187;-70
2023/04/06 12:39:21;;;;;;;13.57;3.20;;;17.30;90.40;;;;;;5071886;28;20221;-72
2023/04/06 12:41:48;;;;;;;12.53;3.33;;;17.30;90.50;;;;;;5073524;28;20563;-71
2023/04/06 12:44:16;;;;;;;11.40;3.47;;;17.30;90.50;;;;;;5071006;28;20175;-70
2023/04/06 12:46:43;;;;;;;12.43;3.33;;;17.30;90.50;;;;;;5059788;28;20175;-71
2023/04/06 12:49:11;;;;;;;7.90;3.10;;;17.30;90.60;;;;;;5073706;28;20222;-71
2023/04/06 12:51:38;;;;;;;10.57;3.90;;;17.30;90.60;;;;;;5073172;28;20179;-72
2023/04/06 12:54:06;;;;;;;11.67;3.37;;;17.30;90.60;;;;;;5073226;28;20266;-72